Time;durP1;ratioP1;P1;durP2;ratioP2;P2;SDS_P1;SDS_P2;PMS_P1;PMS_P2;Temp;Humidity;BMP_temperature;BMP_pressure;BME280_temperature;BME280_humidity;BME280_pressure;Samples;Min_cycle;Max_cycle;Signal;HPM_P1;HPM_P2
2021/04/15 04:05:28;;;;;;;29.52;13.75;;;;;;;8.18;81.85;99732.33;1735460;82;21184;-43
2021/04/15 04:08:02;;;;;;;26.85;15.98;;;;;;;8.18;82.02;99735.80;1716555;81;21329;-43
2021/04/15 04:13:08;;;;;;;26.42;15.70;;;;;;;8.24;82.32;99734.50;1777226;79;24260;-40
2021/04/15 04:15:40;;;;;;;24.35;15.70;;;;;;;8.26;82.18;99744.48;1719766;81;21177;-38
2021/04/15 04:18:23;;;;;;;23.62;15.25;;;;;;;8.27;82.04;99735.78;1725690;82;21165;-38
2021/04/15 04:20:55;;;;;;;28.42;16.50;;;;;;;8.31;82.06;99735.36;1719983;82;21194;-43
2021/04/15 04:23:40;;;;;;;31.53;17.87;;;;;;;8.34;82.03;99731.88;1663566;85;21180;-43
2021/04/15 04:26:29;;;;;;;40.20;20.82;;;;;;;8.38;82.07;99732.35;1651899;86;21966;-43
2021/04/15 04:29:05;;;;;;;34.92;21.15;;;;;;;8.42;82.04;99732.36;1649884;86;21170;-38
2021/04/15 04:31:38;;;;;;;42.98;24.55;;;;;;;8.48;82.00;99728.88;1649705;86;21294;-43
2021/04/15 04:34:05;;;;;;;51.13;27.27;;;;;;;8.50;81.90;99731.91;1644479;86;21183;-43
2021/04/15 04:36:35;;;;;;;38.80;25.32;;;;;;;8.56;81.83;99727.56;1636017;87;21677;-39
2021/04/15 04:39:04;;;;;;;40.83;26.12;;;;;;;8.65;81.92;99724.95;1645056;86;21241;-38
2021/04/15 04:41:55;;;;;;;41.80;24.45;;;;;;;8.75;81.54;99724.91;1643447;86;21209;-42
2021/04/15 04:44:31;;;;;;;49.27;29.70;;;;;;;8.86;81.35;99724.91;1645750;86;21206;-44
2021/04/15 04:47:09;;;;;;;50.05;28.45;;;;;;;8.95;80.96;99722.28;1640462;86;21775;-44
2021/04/15 04:49:44;;;;;;;51.68;29.82;;;;;;;9.01;80.48;99724.88;1643700;86;21206;-37
2021/04/15 04:52:21;;;;;;;49.85;27.27;;;;;;;9.03;79.99;99718.34;1637964;85;21247;-38
2021/04/15 04:54:49;;;;;;;43.68;27.25;;;;;;;9.07;79.72;99717.47;1646903;87;21595;-39
2021/04/15 04:57:36;;;;;;;44.00;27.52;;;;;;;9.18;79.80;99713.52;1636520;86;21249;-39
2021/04/15 05:00:16;;;;;;;48.98;29.20;;;;;;;9.34;79.42;99717.81;1773990;78;23014;-37
2021/04/15 05:02:43;;;;;;;44.93;27.73;;;;;;;9.37;78.84;99722.14;1733529;82;21709;-42
2021/04/15 05:05:28;;;;;;;55.17;31.55;;;;;;;9.39;78.68;99713.86;1705292;81;21166;-37
2021/04/15 05:08:25;;;;;;;85.12;54.85;;;;;;;9.43;78.72;99715.14;1710366;82;21675;-42
2021/04/15 05:10:53;;;;;;;55.00;31.68;;;;;;;9.51;78.69;99712.52;1705495;83;21225;-43
2021/04/15 05:13:27;;;;;;;50.50;28.12;;;;;;;9.58;78.39;99708.55;1710968;83;21170;-43
2021/04/15 05:15:55;;;;;;;55.67;28.12;;;;;;;9.63;78.07;99719.42;1708995;82;21184;-43
2021/04/15 05:18:27;;;;;;;50.75;27.95;;;;;;;9.62;77.90;99721.58;1703923;82;21618;-38
2021/04/15 05:21:06;;;;;;;50.90;27.77;;;;;;;9.63;77.73;99719.42;1666079;83;21234;-44
2021/04/15 05:23:45;;;;;;;43.13;24.63;;;;;;;9.64;77.66;99720.72;1690187;83;21191;-38
2021/04/15 05:26:21;;;;;;;39.18;22.52;;;;;;;9.64;77.52;99714.19;1688889;83;21494;-38
2021/04/15 05:28:55;;;;;;;36.70;23.12;;;;;;;9.62;77.33;99712.44;1690243;84;21159;-38
2021/04/15 05:31:26;;;;;;;46.83;25.08;;;;;;;9.59;77.27;99714.20;1685371;83;21194;-43
2021/04/15 05:34:00;;;;;;;43.73;24.43;;;;;;;9.56;77.29;99708.11;1688573;84;21222;-38
2021/04/15 05:37:21;;;;;;;48.02;27.75;;;;;;;9.54;77.52;99711.19;1665077;83;21661;-37
2021/04/15 05:40:43;;;;;;;51.58;25.90;;;;;;;9.52;77.64;99714.25;1662331;83;21372;-44
2021/04/15 05:43:53;;;;;;;49.83;27.35;;;;;;;9.52;77.86;99718.17;1662947;83;22205;-38
2021/04/15 05:46:52;;;;;;;46.53;24.72;;;;;;;9.48;78.04;99721.22;1685533;83;21707;-43
2021/04/15 05:49:36;;;;;;;43.38;25.15;;;;;;;9.47;78.46;99716.88;1644742;84;21676;-39
2021/04/15 05:52:38;;;;;;;53.78;26.42;;;;;;;9.48;78.43;99717.30;1668437;83;21394;-42
2021/04/15 05:55:12;;;;;;;46.23;24.50;;;;;;;9.48;78.50;99710.77;1689267;83;21328;-42
2021/04/15 05:57:55;;;;;;;47.40;26.60;;;;;;;9.50;78.65;99714.23;1691301;83;21615;-42
2021/04/15 06:00:32;;;;;;;52.63;27.33;;;;;;;9.56;78.50;99713.34;1675960;84;21360;-37
2021/04/15 06:03:14;;;;;;;48.75;25.70;;;;;;;9.59;78.35;99712.89;1680933;85;21896;-38
2021/04/15 06:06:05;;;;;;;47.55;26.52;;;;;;;9.60;78.20;99708.09;1677848;85;21267;-37
2021/04/15 06:08:37;;;;;;;41.53;24.18;;;;;;;9.61;78.32;99707.66;1680915;85;21680;-37
2021/04/15 06:11:22;;;;;;;52.73;27.25;;;;;;;9.65;78.53;99709.38;1669804;84;21084;-37
2021/04/15 06:13:57;;;;;;;51.98;25.65;;;;;;;9.65;79.02;99715.91;1666271;84;21355;-38
2021/04/15 06:17:03;;;;;;;54.93;27.35;;;;;;;9.69;79.34;99716.34;1662244;84;21211;-39
2021/04/15 06:46:34;;;;;;;50.08;26.40;;;;;;;9.84;81.93;99712.75;1647748;84;21251;-38
2021/04/15 06:50:01;;;;;;;52.03;26.93;;;;;;;9.95;81.84;99727.05;1662433;84;21257;-43
2021/04/15 06:52:58;;;;;;;51.42;28.27;;;;;;;9.98;81.86;99716.16;1638193;85;21759;-44
2021/04/15 06:55:54;;;;;;;69.80;33.35;;;;;;;9.95;81.91;99716.16;1749559;79;23080;-41
2021/04/15 06:58:57;;;;;;;64.32;33.15;;;;;;;9.88;82.33;99721.45;1706230;82;21760;-44
2021/04/15 07:02:01;;;;;;;70.75;34.40;;;;;;;9.92;82.46;99716.20;1712428;82;21328;-44
2021/04/15 07:04:49;;;;;;;71.85;33.78;;;;;;;9.98;82.37;99721.83;1710495;82;21158;-44
2021/04/15 07:07:29;;;;;;;66.92;30.85;;;;;;;10.00;82.69;99714.83;1709553;82;21336;-38
2021/04/15 07:10:21;;;;;;;64.45;27.65;;;;;;;10.06;82.76;99720.88;1687282;82;21709;-43
2021/04/15 07:13:27;;;;;;;53.55;26.77;;;;;;;10.14;82.79;99716.45;1709508;82;21179;-37
2021/04/15 07:16:47;;;;;;;60.30;28.95;;;;;;;10.26;82.49;99719.89;1707006;82;21376;-43
2021/04/15 07:19:39;;;;;;;;;;;;;;;10.23;82.33;99719.48;1712027;82;21154;-45
2021/04/15 07:22:39;;;;;;;50.60;25.40;;;;;;;10.27;82.56;99717.73;1708427;82;20482;-39
2021/04/15 07:25:53;;;;;;;55.43;26.07;;;;;;;10.36;82.28;99715.88;1706849;82;21735;-43
2021/04/15 07:29:09;;;;;;;62.58;26.52;;;;;;;10.48;82.07;99716.22;1710185;82;21489;-38
2021/04/15 07:32:49;;;;;;;63.00;27.07;;;;;;;10.59;81.98;99705.22;1705330;82;21164;-43
2021/04/15 07:35:41;;;;;;;43.20;23.35;;;;;;;10.84;82.00;99699.33;1708388;82;21915;-41
2021/04/15 07:38:57;;;;;;;57.40;28.55;;;;;;;11.06;81.17;99699.06;1711772;82;21704;-43
2021/04/15 07:42:09;;;;;;;54.25;25.85;;;;;;;11.20;80.71;99703.72;1711652;82;21594;-42
2021/04/15 07:45:31;;;;;;;53.08;26.52;;;;;;;11.27;79.73;99705.81;1707821;82;21171;-38
2021/04/15 07:48:14;;;;;;;48.80;22.70;;;;;;;11.21;79.35;99702.83;1706932;82;21623;-37
2021/04/15 07:51:03;;;;;;;;;;;;;;;11.13;78.70;99717.73;1710676;82;21756;-38
2021/04/15 07:53:56;;;;;;;50.10;22.80;;;;;;;11.03;78.87;99715.69;1709209;80;20437;-37
2021/04/15 07:56:43;;;;;;;50.83;22.65;;;;;;;10.95;78.89;99714.02;1690298;82;21501;-43
2021/04/15 07:59:37;;;;;;;45.83;23.95;;;;;;;10.93;79.33;99712.73;1691721;82;21171;-37
2021/04/15 08:02:40;;;;;;;45.43;21.90;;;;;;;10.97;79.82;99709.21;1690316;82;21178;-43
2021/04/15 08:05:36;;;;;;;46.10;23.85;;;;;;;11.13;80.22;99699.00;1690317;82;21792;-38
2021/04/15 08:08:40;;;;;;;46.15;21.97;;;;;;;11.38;79.76;99696.08;1691256;82;21741;-38
2021/04/15 08:11:48;;;;;;;36.25;20.48;;;;;;;11.59;78.80;99690.98;1688416;82;22105;-43
2021/04/15 08:14:51;;;;;;;35.50;19.67;;;;;;;11.76;78.17;99686.81;1689564;82;21159;-38
2021/04/15 08:18:01;;;;;;;36.93;17.52;;;;;;;11.91;77.01;99679.63;1672063;82;21785;-44
2021/04/15 08:21:26;;;;;;;38.60;17.85;;;;;;;11.98;75.68;99685.20;1595891;87;21357;-38
2021/04/15 08:25:52;;;;;;;32.93;17.23;;;;;;;12.07;74.92;99684.66;1799714;77;23074;-37
2021/04/15 08:34:11;;;;;;;36.85;18.42;;;;;;;11.82;74.75;99681.06;1798774;78;21104;-44
2021/04/15 08:37:04;;;;;;;37.35;17.48;;;;;;;11.73;75.04;99688.60;1792463;78;21622;-43
2021/04/15 08:40:09;;;;;;;32.38;16.12;;;;;;;11.78;75.16;99685.06;1793590;78;21505;-40
2021/04/15 08:43:24;;;;;;;28.57;14.85;;;;;;;11.87;75.52;99681.01;1794606;78;21169;-37
2021/04/15 08:46:23;;;;;;;35.25;16.87;;;;;;;11.91;75.44;99682.25;1787963;78;21149;-44
2021/04/15 08:49:21;;;;;;;32.35;17.48;;;;;;;11.90;74.99;99682.28;1781752;78;21160;-42
2021/04/15 08:52:37;;;;;;;32.10;18.23;;;;;;;11.82;74.85;99681.06;1792546;79;21112;-43
2021/04/15 08:55:37;;;;;;;30.30;16.60;;;;;;;11.73;74.90;99678.56;1795347;79;21204;-43
2021/04/15 08:58:51;;;;;;;32.23;16.77;;;;;;;11.72;75.22;99675.08;1792318;78;21301;-39
2021/04/15 09:01:34;;;;;;;32.83;17.57;;;;;;;11.69;75.29;99679.05;1804327;79;21107;-44
2021/04/15 09:04:15;;;;;;;41.05;18.17;;;;;;;11.63;75.63;99675.20;1801839;78;21589;-43
2021/04/15 09:07:15;;;;;;;34.48;18.37;;;;;;;11.54;76.43;99674.03;1806220;79;21159;-37
2021/04/15 09:10:10;;;;;;;35.23;16.65;;;;;;;11.46;76.99;99674.56;1792189;78;22054;-36
2021/04/15 09:13:30;;;;;;;36.58;18.50;;;;;;;11.43;77.67;99675.94;1788194;78;21134;-38
2021/04/15 09:16:20;;;;;;;34.53;17.48;;;;;;;11.44;77.74;99672.42;1797625;78;22051;-39
2021/04/15 09:19:10;;;;;;;33.53;17.50;;;;;;;11.51;78.04;99675.38;1790253;77;21160;-44
2021/04/15 09:22:16;;;;;;;34.75;18.25;;;;;;;11.61;77.87;99677.44;1791678;78;21164;-43
2021/04/15 09:26:36;;;;;;;30.72;17.00;;;;;;;11.57;77.63;99674.42;1788525;78;22213;-41
2021/04/15 09:30:37;;;;;;;34.10;19.07;;;;;;;11.47;77.91;99671.05;1790938;78;21321;-39
2021/04/15 09:38:45;;;;;;;37.95;20.75;;;;;;;11.24;78.63;99677.03;1778013;78;21681;-39
2021/04/15 09:42:48;;;;;;;33.25;18.52;;;;;;;11.26;78.48;99684.45;1793288;78;21586;-43
2021/04/15 09:46:40;;;;;;;31.82;19.30;;;;;;;11.22;78.42;99680.98;1790677;78;21217;-45
2021/04/15 09:50:21;;;;;;;32.75;19.15;;;;;;;11.24;78.64;99682.27;1800002;78;21183;-44
2021/04/15 09:53:00;;;;;;;30.82;19.35;;;;;;;11.15;79.00;99676.72;1803878;78;21184;-38
2021/04/15 09:56:08;;;;;;;32.00;19.48;;;;;;;11.12;79.68;99681.98;1797110;79;21167;-37
2021/04/15 10:03:25;;;;;;;30.62;19.32;;;;;;;11.24;80.64;99682.27;1780151;77;24841;-43
2021/04/15 10:07:05;;;;;;;29.87;13.95;;;;;;;11.15;80.91;99690.67;1754797;80;21748;-43
2021/04/15 10:27:22;;;;;;;13.48;8.85;;;;;;;10.78;80.87;99688.89;1697005;82;21268;-43
2021/04/15 10:30:57;;;;;;;12.68;8.35;;;;;;;10.84;80.95;99685.34;1697096;82;21691;-38
2021/04/15 10:34:13;;;;;;;13.50;8.20;;;;;;;10.99;80.08;99676.47;1698982;84;21217;-44
2021/04/15 10:37:27;;;;;;;12.60;8.30;;;;;;;11.14;79.78;99673.69;1662569;84;21197;-43
2021/04/15 10:40:29;;;;;;;11.15;7.30;;;;;;;11.27;79.15;99678.32;1639169;86;21328;-39
2021/04/15 10:43:48;;;;;;;8.68;6.85;;;;;;;11.50;78.71;99675.41;1639001;86;21215;-38
2021/04/15 10:47:02;;;;;;;11.13;7.53;;;;;;;11.84;78.01;99674.52;1618389;87;21293;-38
2021/04/15 10:50:05;;;;;;;8.08;6.33;;;;;;;12.34;75.74;99674.14;1642301;86;21295;-38
2021/04/15 10:52:59;;;;;;;8.48;6.33;;;;;;;12.92;74.07;99670.45;1792117;78;23161;-41
2021/04/15 10:55:42;;;;;;;11.90;6.62;;;;;;;13.18;72.90;99672.13;1761151;80;21731;-37
2021/04/15 10:58:37;;;;;;;9.18;5.83;;;;;;;13.44;69.92;99667.66;1765493;79;23192;-42
2021/04/15 11:01:31;;;;;;;9.95;6.67;;;;;;;13.50;69.23;99664.03;1716931;80;21180;-37
2021/04/15 11:04:13;;;;;;;9.45;6.12;;;;;;;13.54;69.50;99669.64;1711413;82;21201;-39
2021/04/15 11:06:54;;;;;;;9.95;5.90;;;;;;;13.62;69.51;99666.84;1713023;82;21147;-38
2021/04/15 11:09:38;;;;;;;9.45;6.65;;;;;;;13.77;69.89;99655.98;1713063;82;21187;-39
2021/04/15 11:12:47;;;;;;;6.67;5.97;;;;;;;14.05;68.55;99652.27;1679157;83;21143;-37
2021/04/15 11:15:22;;;;;;;9.90;6.67;;;;;;;14.56;68.97;99650.11;1672466;83;21198;-43
2021/04/15 11:17:54;;;;;;;10.45;6.60;;;;;;;15.03;66.91;99651.03;1676544;83;21161;-43
2021/04/15 11:20:52;;;;;;;6.62;5.62;;;;;;;15.19;66.21;99645.74;1672561;83;21172;-44
2021/04/15 11:23:28;;;;;;;11.90;6.03;;;;;;;15.33;65.62;99643.55;1676642;84;21522;-38
2021/04/15 11:26:18;;;;;;;7.30;5.97;;;;;;;15.39;64.75;99641.19;1673351;83;21211;-43
2021/04/15 11:28:49;;;;;;;7.05;5.37;;;;;;;15.36;63.71;99635.53;1673198;83;21318;-41
2021/04/15 11:31:51;;;;;;;7.17;5.28;;;;;;;15.21;63.21;99626.79;1670572;83;21787;-37
2021/04/15 11:34:27;;;;;;;8.75;5.22;;;;;;;14.95;63.30;99628.84;1671535;83;21171;-37
2021/04/15 11:37:18;;;;;;;12.40;6.15;;;;;;;14.50;63.60;99630.99;1673550;83;21191;-43
2021/04/15 11:39:46;;;;;;;13.55;5.80;;;;;;;14.22;64.67;99626.41;1672841;83;21337;-42
2021/04/15 11:42:15;;;;;;;8.78;6.03;;;;;;;13.99;65.66;99636.63;1671775;83;21272;-41
2021/04/15 11:44:48;;;;;;;12.33;6.12;;;;;;;13.85;66.06;99636.48;1669758;83;21220;-43
2021/04/15 11:47:23;;;;;;;8.43;5.83;;;;;;;13.73;67.28;99632.84;1671794;83;21739;-41
2021/04/15 11:49:52;;;;;;;6.90;5.72;;;;;;;13.68;67.93;99634.70;1672429;84;21236;-38
2021/04/15 11:52:35;;;;;;;10.78;6.58;;;;;;;13.62;68.23;99634.84;1665826;84;21610;-42
2021/04/15 11:55:09;;;;;;;8.55;6.00;;;;;;;13.54;69.37;99631.09;1660053;84;21406;-43
2021/04/15 11:57:39;;;;;;;9.83;6.08;;;;;;;13.46;69.49;99630.41;1604656;84;21748;-43
2021/04/15 12:00:18;;;;;;;9.40;6.33;;;;;;;13.42;69.49;99625.25;1622980;86;21559;-42
2021/04/15 12:02:50;;;;;;;9.53;5.75;;;;;;;13.35;69.72;99631.09;1667604;84;21488;-41
2021/04/15 12:05:30;;;;;;;;;;;;;;;13.30;69.81;99627.24;1616561;86;22062;-43
2021/04/15 12:08:25;;;;;;;8.18;5.55;;;;;;;13.28;69.77;99629.50;1610589;87;20279;-38
2021/04/15 12:11:16;;;;;;;11.65;6.50;;;;;;;13.24;70.56;99625.20;1650762;84;21279;-43
2021/04/15 12:13:51;;;;;;;10.35;6.28;;;;;;;13.26;70.53;99625.57;1650944;84;21182;-44
2021/04/15 12:16:54;;;;;;;13.43;7.53;;;;;;;13.29;70.71;99625.97;1652061;84;21375;-43
2021/04/15 12:19:43;;;;;;;;;;;;;;;13.31;71.50;99621.09;1654065;84;21826;-43
2021/04/15 12:22:49;;;;;;;10.32;6.83;;;;;;;13.39;72.00;99616.97;1655929;84;20174;-39
2021/04/15 12:25:27;;;;;;;13.93;6.75;;;;;;;13.49;71.93;99619.81;1646928;84;21606;-42
2021/04/15 12:28:35;;;;;;;8.73;5.92;;;;;;;13.68;71.26;99610.19;1808457;78;23738;-42
2021/04/15 12:31:36;;;;;;;11.12;6.37;;;;;;;13.69;70.46;99612.80;1780091;79;21199;-42
2021/04/15 12:34:36;;;;;;;14.83;6.42;;;;;;;13.65;70.59;99605.88;1672152;84;21688;-43
2021/04/15 12:37:39;;;;;;;10.00;6.92;;;;;;;13.54;71.22;99600.00;1813534;79;23140;-40
2021/04/15 12:40:34;;;;;;;13.45;7.35;;;;;;;13.39;71.58;99606.45;1761468;79;21189;-37
2021/04/15 12:43:16;;;;;;;19.17;12.58;;;;;;;13.25;72.65;99604.14;1773560;79;21157;-40
2021/04/15 12:45:50;;;;;;;10.88;6.03;;;;;;;13.16;72.72;99602.13;1769371;79;21154;-40
2021/04/15 12:48:45;;;;;;;27.80;16.32;;;;;;;13.12;72.86;99602.66;1775757;80;21621;-39
2021/04/15 12:51:18;;;;;;;14.78;10.25;;;;;;;13.12;72.96;99597.41;1734126;81;21194;-36
2021/04/15 12:53:47;;;;;;;13.05;8.05;;;;;;;13.24;73.18;99600.25;1748000;81;21207;-40
2021/04/15 12:56:38;;;;;;;9.85;7.58;;;;;;;13.35;73.42;99601.33;1738030;81;21241;-40
2021/04/15 12:59:19;;;;;;;7.50;6.47;;;;;;;13.46;73.41;99590.13;1747874;79;28337;-36
2021/04/15 13:01:47;;;;;;;8.85;6.47;;;;;;;13.54;72.97;99600.87;1718305;81;21617;-41
2021/04/15 13:04:22;;;;;;;13.10;6.97;;;;;;;13.62;72.46;99595.88;1718153;82;21597;-36
2021/04/15 13:07:17;;;;;;;7.78;6.15;;;;;;;13.61;72.23;99596.78;1678661;85;21168;-41
2021/04/15 13:09:46;;;;;;;11.90;7.10;;;;;;;13.52;72.38;99601.36;1648398;85;21187;-42
2021/04/15 13:12:36;;;;;;;8.88;6.78;;;;;;;13.43;72.67;99596.75;1664250;85;21191;-41
2021/04/15 13:15:25;;;;;;;9.65;6.72;;;;;;;13.41;72.86;99595.94;1649324;87;21705;-41
2021/04/15 13:18:00;;;;;;;7.47;5.62;;;;;;;13.35;73.09;99596.08;1679423;85;21635;-35
2021/04/15 13:20:35;;;;;;;14.83;6.17;;;;;;;13.26;73.07;99598.44;1677290;85;21761;-36
2021/04/15 13:23:14;;;;;;;14.68;5.87;;;;;;;13.15;73.35;99597.32;1677889;85;21650;-41
2021/04/15 13:25:58;;;;;;;8.85;5.45;;;;;;;13.10;73.51;99602.25;1677890;84;21182;-37
2021/04/15 13:28:48;;;;;;;7.75;5.45;;;;;;;13.08;73.46;99604.92;1678294;85;21198;-37
2021/04/15 13:31:40;;;;;;;12.40;6.00;;;;;;;13.09;73.24;99604.02;1682772;85;21248;-42
2021/04/15 13:34:20;;;;;;;10.20;5.78;;;;;;;13.12;73.16;99603.97;1658579;85;21623;-42
2021/04/15 13:36:48;;;;;;;19.82;7.05;;;;;;;13.15;73.38;99607.83;1650535;87;21168;-42
2021/04/15 13:39:37;;;;;;;26.68;7.35;;;;;;;13.19;73.68;99605.56;1650577;85;21219;-37
2021/04/15 13:42:08;;;;;;;9.40;5.50;;;;;;;13.29;73.54;99601.02;1650709;87;21183;-42
2021/04/15 13:44:56;;;;;;;8.18;5.17;;;;;;;13.46;72.46;99607.21;1649922;85;21208;-37
2021/04/15 13:47:49;;;;;;;6.03;4.33;;;;;;;13.58;71.79;99606.92;1656841;85;21206;-37
2021/04/15 13:50:18;;;;;;;6.83;4.65;;;;;;;13.66;71.38;99606.28;1674517;86;21222;-43
